Time;durP1;ratioP1;P1;durP2;ratioP2;P2;SDS_P1;SDS_P2;PMS_P1;PMS_P2;Temp;Humidity;BMP_temperature;BMP_pressure;BME280_temperature;BME280_humidity;BME280_pressure;Samples;Min_cycle;Max_cycle;Signal;HPM_P1;HPM_P2
2023/01/23 00:04:36;;;;;;;1.95;0.70;;;;;;;-146.30;100.00;58188.94;10410131;28;20301;-80
2023/01/23 00:09:38;;;;;;;1.70;0.60;;;;;;;-146.30;100.00;58188.94;10412626;28;20504;-81
2023/01/23 00:14:39;;;;;;;0.98;0.88;;;;;;;-146.30;100.00;58188.94;10412466;28;20033;-81
2023/01/23 00:19:41;;;;;;;1.17;1.10;;;;;;;-146.30;100.00;58188.94;10421422;28;20509;-81
2023/01/23 00:24:42;;;;;;;0.15;0.15;;;;;;;-146.30;100.00;58188.94;10421047;28;20091;-81
2023/01/23 00:29:46;;;;;;;2.28;0.75;;;;;;;-146.30;100.00;58188.94;10420052;28;20038;-80
2023/01/23 00:34:48;;;;;;;1.70;1.02;;;;;;;-146.30;100.00;58188.94;10420335;28;20052;-81
2023/01/23 00:39:49;;;;;;;1.17;1.08;;;;;;;-146.30;100.00;58188.94;10433894;28;20412;-79
2023/01/23 00:44:51;;;;;;;0.10;0.10;;;;;;;-146.30;100.00;58188.94;10418916;28;20623;-80
2023/01/23 00:49:54;;;;;;;0.55;0.55;;;;;;;-146.30;100.00;58188.94;10419343;28;20207;-81
2023/01/23 00:54:55;;;;;;;0.52;0.47;;;;;;;-146.30;100.00;58188.94;10431432;28;20049;-79
2023/01/23 00:59:57;;;;;;;0.95;0.68;;;;;;;-146.30;100.00;58188.94;10416170;28;20496;-80
2023/01/23 01:05:01;;;;;;;0.60;0.60;;;;;;;-146.30;100.00;58188.94;10396201;28;20045;-81
2023/01/23 01:10:03;;;;;;;1.17;1.08;;;;;;;-146.30;100.00;58188.94;10387817;28;20064;-81
2023/01/23 01:15:06;;;;;;;0.15;0.15;;;;;;;-146.30;100.00;58188.94;10428379;28;20045;-81
2023/01/23 01:20:09;;;;;;;0.52;0.52;;;;;;;-146.30;100.00;58188.94;10400324;28;20412;-80
2023/01/23 01:25:11;;;;;;;1.02;0.93;;;;;;;-146.30;100.00;58188.94;10402416;28;20420;-81
2023/01/23 01:30:15;;;;;;;1.27;1.13;;;;;;;-146.30;100.00;58188.94;10418297;28;20508;-81
2023/01/23 01:35:22;;;;;;;0.15;0.15;;;;;;;-146.30;100.00;58188.94;10414972;28;20053;-81
2023/01/23 01:40:27;;;;;;;0.50;0.50;;;;;;;-146.30;100.00;58188.94;10402910;28;20053;-81
2023/01/23 01:46:03;;;;;;;0.77;0.65;;;;;;;-146.30;100.00;58188.94;10390265;28;20065;-80
2023/01/23 01:51:14;;;;;;;0.28;0.25;;;;;;;-146.30;100.00;58188.94;10418239;28;20049;-81
2023/01/23 01:56:17;;;;;;;0.20;0.20;;;;;;;-146.30;100.00;58188.94;10417768;28;20384;-81
2023/01/23 02:01:19;;;;;;;2.75;1.48;;;;;;;-146.30;100.00;58188.94;10416390;28;20084;-81
2023/01/23 02:06:21;;;;;;;2.13;0.80;;;;;;;-146.30;100.00;58188.94;10401872;28;20100;-81
2023/01/23 02:11:24;;;;;;;0.20;0.20;;;;;;;-146.30;100.00;58188.94;10405616;28;20132;-80
2023/01/23 02:16:32;;;;;;;0.32;0.32;;;;;;;-146.30;100.00;58188.94;10423792;28;20061;-79
2023/01/23 02:21:35;;;;;;;0.55;0.55;;;;;;;-146.30;100.00;58188.94;10399654;28;20049;-80
2023/01/23 02:26:40;;;;;;;2.83;1.17;;;;;;;-146.30;100.00;58188.94;10426293;28;20052;-84
2023/01/23 02:31:44;;;;;;;1.23;0.73;;;;;;;-146.30;100.00;58188.94;10376240;28;20049;-85
2023/01/23 02:36:47;;;;;;;1.55;0.68;;;;;;;-146.30;100.00;58188.94;10387817;28;20056;-84
2023/01/23 02:41:50;;;;;;;0.63;0.60;;;;;;;-146.30;100.00;58188.94;10426633;28;20038;-85
2023/01/23 02:46:57;;;;;;;2.83;0.90;;;;;;;-146.30;100.00;58188.94;10397854;28;20052;-84
2023/01/23 02:52:00;;;;;;;0.70;0.70;;;;;;;-146.30;100.00;58188.94;10411183;28;20129;-85
2023/01/23 02:57:06;;;;;;;0.38;0.38;;;;;;;-146.30;100.00;58188.94;10412808;28;20045;-84
2023/01/23 03:02:09;;;;;;;1.15;0.85;;;;;;;-146.30;100.00;58188.94;10411335;28;20142;-85
2023/01/23 03:07:10;;;;;;;0.98;0.55;;;;;;;-146.30;100.00;58188.94;10445654;28;20041;-82
2023/01/23 03:12:14;;;;;;;0.63;0.57;;;;;;;-146.30;100.00;58188.94;10413811;28;20049;-85
2023/01/23 03:17:16;;;;;;;1.15;0.90;;;;;;;-146.30;100.00;58188.94;10437221;28;20048;-85
2023/01/23 03:22:18;;;;;;;0.15;0.15;;;;;;;-146.30;100.00;58188.94;10435236;28;20041;-84
2023/01/23 03:27:20;;;;;;;1.17;0.98;;;;;;;-146.30;100.00;58188.94;10396072;28;20568;-84
2023/01/23 03:32:28;;;;;;;0.77;0.73;;;;;;;-146.30;100.00;58188.94;10389500;28;20578;-84
2023/01/23 03:37:30;;;;;;;0.43;0.43;;;;;;;-146.30;100.00;58188.94;10413153;28;20156;-85
2023/01/23 03:42:33;;;;;;;0.90;0.45;;;;;;;-146.30;100.00;58188.94;10413502;28;20041;-84
2023/01/23 03:47:36;;;;;;;2.28;1.02;;;;;;;-146.30;100.00;58188.94;10421314;28;20057;-84
2023/01/23 03:52:40;;;;;;;0.60;0.60;;;;;;;-146.30;100.00;58188.94;10404277;28;20057;-84
2023/01/23 03:57:42;;;;;;;0.22;0.22;;;;;;;-146.30;100.00;58188.94;10387776;28;20091;-84
2023/01/23 04:02:49;;;;;;;0.73;0.45;;;;;;;-146.30;100.00;58188.94;10414229;28;20045;-84
2023/01/23 04:07:53;;;;;;;0.63;0.63;;;;;;;-146.30;100.00;58188.94;10400601;28;20061;-85
2023/01/23 04:12:54;;;;;;;0.35;0.35;;;;;;;-146.30;100.00;58188.94;10413472;28;20049;-85
2023/01/23 04:17:56;;;;;;;0.82;0.65;;;;;;;-146.30;100.00;58188.94;10387167;28;20061;-85
2023/01/23 04:22:59;;;;;;;2.00;0.75;;;;;;;-146.30;100.00;58188.94;10420403;28;20046;-85
2023/01/23 04:28:03;;;;;;;0.47;0.47;;;;;;;-146.30;100.00;58188.94;10408949;28;20065;-85
2023/01/23 04:33:05;;;;;;;0.32;0.32;;;;;;;-146.30;100.00;58188.94;10425845;28;20048;-84
2023/01/23 04:38:08;;;;;;;0.68;0.68;;;;;;;-146.30;100.00;58188.94;10431912;28;20083;-85
2023/01/23 04:43:12;;;;;;;0.40;0.40;;;;;;;-146.30;100.00;58188.94;10443612;28;20471;-85
2023/01/23 04:48:20;;;;;;;2.42;1.15;;;;;;;-146.30;100.00;58188.94;10403475;28;20065;-83
2023/01/23 04:53:22;;;;;;;0.25;0.25;;;;;;;-146.30;100.00;58188.94;10419929;28;20037;-84
2023/01/23 04:58:31;;;;;;;0.38;0.28;;;;;;;-146.30;100.00;58188.94;10419084;28;20469;-84
2023/01/23 05:03:36;;;;;;;1.77;1.65;;;;;;;-146.30;100.00;58188.94;10436858;28;20050;-83
2023/01/23 05:08:37;;;;;;;0.68;0.65;;;;;;;-146.30;100.00;58188.94;10442186;28;20156;-84
2023/01/23 05:13:49;;;;;;;0.22;0.22;;;;;;;-146.30;100.00;58188.94;10422512;28;20049;-84
2023/01/23 05:18:54;;;;;;;0.38;0.22;;;;;;;-146.30;100.00;58188.94;10426194;28;20064;-85
2023/01/23 05:23:56;;;;;;;0.00;0.00;;;;;;;-146.30;100.00;58188.94;10422132;28;20042;-81
2023/01/23 05:28:58;;;;;;;2.90;2.05;;;;;;;-146.30;100.00;58188.94;10416010;28;20045;-81
2023/01/23 05:34:00;;;;;;;0.25;0.20;;;;;;;-146.30;100.00;58188.94;10425934;28;20041;-81
2023/01/23 05:39:02;;;;;;;0.57;0.57;;;;;;;-146.30;100.00;58188.94;10453116;28;20045;-80
2023/01/23 05:44:05;;;;;;;0.20;0.20;;;;;;;-146.30;100.00;58188.94;10420227;28;20041;-80
2023/01/23 05:49:29;;;;;;;0.20;0.20;;;;;;;-146.30;100.00;58188.94;10429945;28;20052;-81
2023/01/23 05:54:32;;;;;;;0.73;0.70;;;;;;;-146.30;100.00;58188.94;10426131;28;20069;-80
2023/01/23 05:59:34;;;;;;;0.65;0.65;;;;;;;-146.30;100.00;58188.94;10420819;28;20385;-80
2023/01/23 06:04:58;;;;;;;1.30;0.85;;;;;;;-146.30;100.00;58188.94;10434777;28;20052;-80
2023/01/23 06:10:16;;;;;;;0.30;0.28;;;;;;;-146.30;100.00;58188.94;10431347;28;20049;-81
2023/01/23 06:15:18;;;;;;;0.52;0.15;;;;;;;-146.30;100.00;58188.94;10440421;28;20049;-80
2023/01/23 06:20:20;;;;;;;2.17;0.95;;;;;;;-146.30;100.00;58188.94;10414589;28;20041;-81
2023/01/23 06:25:23;;;;;;;0.88;0.82;;;;;;;-146.30;100.00;58188.94;10422992;28;20041;-80
2023/01/23 06:30:27;;;;;;;2.42;1.25;;;;;;;-146.30;100.00;58188.94;10456450;28;20120;-81
2023/01/23 06:35:30;;;;;;;1.38;0.80;;;;;;;-146.30;100.00;58188.94;10395594;28;20053;-80
2023/01/23 06:40:35;;;;;;;3.30;0.57;;;;;;;-146.30;100.00;58188.94;10405850;28;20104;-80
2023/01/23 06:45:51;;;;;;;8.40;0.93;;;;;;;-146.30;100.00;58188.94;10396470;28;20049;-81
2023/01/23 06:50:53;;;;;;;0.65;0.65;;;;;;;-146.30;100.00;58188.94;10426872;28;20041;-82
2023/01/23 06:56:02;;;;;;;0.47;0.47;;;;;;;-146.30;100.00;58188.94;10417872;28;20057;-81
2023/01/23 07:01:17;;;;;;;1.33;1.23;;;;;;;-146.30;100.00;58188.94;10401332;28;20103;-81
2023/01/23 07:06:40;;;;;;;0.75;0.75;;;;;;;-146.30;100.00;58188.94;10393692;28;20057;-81
2023/01/23 07:11:42;;;;;;;0.38;0.38;;;;;;;-146.30;100.00;58188.94;10415364;28;20051;-81
2023/01/23 07:16:45;;;;;;;1.67;1.58;;;;;;;-146.30;100.00;58188.94;10396021;28;20055;-81
2023/01/23 07:21:51;;;;;;;0.03;0.03;;;;;;;-146.30;100.00;58188.94;10429958;28;20075;-81
2023/01/23 07:26:52;;;;;;;0.63;0.63;;;;;;;-146.30;100.00;58188.94;10387648;28;20045;-81
2023/01/23 07:31:54;;;;;;;0.38;0.38;;;;;;;-146.30;100.00;58188.94;10412501;28;20045;-82
2023/01/23 07:36:56;;;;;;;0.45;0.45;;;;;;;-146.30;100.00;58188.94;10440131;28;20045;-81
2023/01/23 07:41:57;;;;;;;0.40;0.30;;;;;;;-146.30;100.00;58188.94;10426605;28;20053;-82
2023/01/23 07:47:01;;;;;;;0.08;0.08;;;;;;;-146.30;100.00;58188.94;10436871;28;20441;-82
2023/01/23 07:52:04;;;;;;;0.88;0.70;;;;;;;-146.30;100.00;58188.94;10432266;28;20164;-82
2023/01/23 07:57:05;;;;;;;0.28;0.28;;;;;;;-146.30;100.00;58188.94;10436374;28;20091;-82
2023/01/23 08:02:09;;;;;;;0.82;0.82;;;;;;;-146.30;100.00;58188.94;10426452;28;20040;-81
2023/01/23 08:07:36;;;;;;;0.57;0.57;;;;;;;-146.30;100.00;58188.94;10403971;28;20046;-86
2023/01/23 08:12:38;;;;;;;1.05;0.95;;;;;;;-146.30;100.00;58188.94;10407287;28;20050;-81
2023/01/23 08:17:39;;;;;;;0.10;0.10;;;;;;;-146.30;100.00;58188.94;10402485;28;20401;-81
2023/01/23 08:22:41;;;;;;;1.13;0.70;;;;;;;-146.30;100.00;58188.94;10410276;28;20045;-81
2023/01/23 08:27:42;;;;;;;2.05;0.98;;;;;;;-146.30;100.00;58188.94;10393178;28;20045;-81
2023/01/23 08:33:09;;;;;;;0.10;0.10;;;;;;;-146.30;100.00;58188.94;10400314;28;20599;-81
2023/01/23 08:38:11;;;;;;;1.25;0.57;;;;;;;-146.30;100.00;58188.94;10420744;28;20045;-81
2023/01/23 08:43:13;;;;;;;1.98;0.70;;;;;;;-146.30;100.00;58188.94;10403044;28;20691;-81
2023/01/23 08:48:15;;;;;;;2.35;0.82;;;;;;;-146.30;100.00;58188.94;10411488;28;20053;-81
2023/01/23 08:53:17;;;;;;;0.63;0.50;;;;;;;-146.30;100.00;58188.94;10393594;28;20050;-80
2023/01/23 08:58:19;;;;;;;0.70;0.43;;;;;;;-146.30;100.00;58188.94;10402397;28;20049;-81
2023/01/23 09:03:20;;;;;;;0.65;0.65;;;;;;;-146.30;100.00;58188.94;10436165;28;20451;-81
2023/01/23 09:08:22;;;;;;;0.85;0.77;;;;;;;-146.30;100.00;58188.94;10421201;28;20049;-81
2023/01/23 09:13:24;;;;;;;1.23;1.08;;;;;;;-146.30;100.00;58188.94;10418709;28;20095;-81
2023/01/23 09:18:26;;;;;;;0.63;0.47;;;;;;;-146.30;100.00;58188.94;10418437;28;20497;-81
2023/01/23 09:23:28;;;;;;;1.20;1.15;;;;;;;-146.30;100.00;58188.94;10418118;28;20049;-81
2023/01/23 09:28:30;;;;;;;1.17;0.85;;;;;;;-146.30;100.00;58188.94;10395239;28;20061;-81
2023/01/23 09:33:32;;;;;;;0.50;0.50;;;;;;;-146.30;100.00;58188.94;10402401;28;20109;-81
2023/01/23 09:39:24;;;;;;;0.55;0.55;;;;;;;-146.30;100.00;58188.94;10429934;28;20382;-81
2023/01/23 09:44:41;;;;;;;0.32;0.32;;;;;;;-146.30;100.00;58188.94;10393195;28;20081;-85
2023/01/23 09:49:52;;;;;;;0.38;0.38;;;;;;;-146.30;100.00;58188.94;10411315;28;20077;-86
2023/01/23 09:55:03;;;;;;;2.17;0.93;;;;;;;-146.30;100.00;58188.94;10405749;28;20103;-85
2023/01/23 10:00:33;;;;;;;2.00;1.10;;;;;;;-146.30;100.00;58188.94;10406052;28;20041;-84
2023/01/23 10:05:49;;;;;;;0.37;0.37;;;;;;;-146.30;100.00;58188.94;10408725;28;20037;-87
2023/01/23 10:11:22;;;;;;;0.20;0.20;;;;;;;-146.30;100.00;58188.94;10410450;28;20099;-87
2023/01/23 10:16:43;;;;;;;2.38;0.60;;;;;;;-146.30;100.00;58188.94;10410550;28;20103;-87
2023/01/23 10:21:58;;;;;;;1.35;1.10;;;;;;;-146.30;100.00;58188.94;10412244;28;20128;-88
2023/01/23 10:27:15;;;;;;;1.13;0.95;;;;;;;-146.30;100.00;58188.94;10430510;28;20400;-87
2023/01/23 10:32:37;;;;;;;1.05;1.02;;;;;;;-146.30;100.00;58188.94;10413514;28;20168;-86
2023/01/23 10:37:49;;;;;;;6.03;1.40;;;;;;;-146.30;100.00;58188.94;10389980;28;20057;-88
2023/01/23 10:42:51;;;;;;;1.02;0.68;;;;;;;-146.30;100.00;58188.94;10411421;28;20099;-82
2023/01/23 10:47:53;;;;;;;3.65;0.68;;;;;;;-146.30;100.00;58188.94;10404472;28;20455;-85
2023/01/23 10:53:05;;;;;;;2.10;1.17;;;;;;;-146.30;100.00;58188.94;10432041;28;20064;-87
2023/01/23 10:58:40;;;;;;;1.05;0.95;;;;;;;-146.30;100.00;58188.94;10424580;28;20060;-87
2023/01/23 11:03:44;;;;;;;0.35;0.35;;;;;;;-146.30;100.00;58188.94;10422623;28;20065;-85
2023/01/23 11:08:59;;;;;;;0.75;0.70;;;;;;;-146.30;100.00;58188.94;10412471;28;20111;-85
2023/01/23 11:14:11;;;;;;;2.88;0.85;;;;;;;-146.30;100.00;58188.94;10393662;28;20048;-84
2023/01/23 11:19:20;;;;;;;3.03;2.05;;;;;;;-146.30;100.00;58188.94;10410594;28;20037;-84
2023/01/23 11:24:24;;;;;;;0.70;0.70;;;;;;;-146.30;100.00;58188.94;10426636;28;20056;-84
2023/01/23 11:30:15;;;;;;;1.67;1.38;;;;;;;-146.30;100.00;58188.94;10419709;28;20099;-84
2023/01/23 11:35:22;;;;;;;1.50;0.93;;;;;;;-146.30;100.00;58188.94;10418650;28;20084;-85
2023/01/23 11:40:24;;;;;;;0.80;0.73;;;;;;;-146.30;100.00;58188.94;10405645;28;20103;-85
2023/01/23 11:45:42;;;;;;;0.73;0.68;;;;;;;-146.30;100.00;58188.94;10399022;28;20056;-85
2023/01/23 11:51:02;;;;;;;0.17;0.17;;;;;;;-146.30;100.00;58188.94;10418149;28;20041;-85
2023/01/23 11:56:43;;;;;;;0.50;0.50;;;;;;;-146.30;100.00;58188.94;10418488;28;20076;-85
2023/01/23 12:02:15;;;;;;;0.70;0.70;;;;;;;-146.30;100.00;58188.94;10408316;28;20060;-85
2023/01/23 12:07:20;;;;;;;0.30;0.30;;;;;;;-146.30;100.00;58188.94;10405607;28;20041;-82
2023/01/23 12:12:49;;;;;;;0.82;0.63;;;;;;;-146.30;100.00;58188.94;10436257;28;20053;-82
2023/01/23 12:18:11;;;;;;;0.93;0.70;;;;;;;-146.30;100.00;58188.94;10422905;28;20088;-81
2023/01/23 12:23:16;;;;;;;0.43;0.32;;;;;;;-146.30;100.00;58188.94;10418296;28;20049;-82
2023/01/23 12:28:41;;;;;;;1.27;1.00;;;;;;;-146.30;100.00;58188.94;10419296;28;20537;-81
2023/01/23 12:33:57;;;;;;;0.43;0.43;;;;;;;-146.30;100.00;58188.94;10414884;28;20127;-83
2023/01/23 12:39:25;;;;;;;0.85;0.70;;;;;;;-146.30;100.00;58188.94;10398933;28;20574;-81
2023/01/23 12:44:35;;;;;;;0.20;0.20;;;;;;;-146.30;100.00;58188.94;10434286;28;20064;-81
2023/01/23 12:49:56;;;;;;;21.42;2.13;;;;;;;-146.30;100.00;58188.94;10402549;28;20449;-81
2023/01/23 12:55:10;;;;;;;1.52;1.00;;;;;;;-146.30;100.00;58188.94;10416731;28;20038;-82
2023/01/23 13:00:31;;;;;;;0.43;0.43;;;;;;;-146.30;100.00;58188.94;10408030;28;20107;-80
2023/01/23 13:05:41;;;;;;;1.52;1.30;;;;;;;-146.30;100.00;58188.94;10411939;28;20042;-82
2023/01/23 13:16:17;;;;;;;1.17;0.98;;;;;;;-146.30;100.00;58188.94;10411115;28;20076;-82
2023/01/23 13:26:39;;;;;;;5.50;2.88;;;;;;;-146.30;100.00;58188.94;10413119;28;20045;-82
2023/01/23 13:31:45;;;;;;;1.33;0.80;;;;;;;-146.30;100.00;58188.94;10384947;28;20060;-81
2023/01/23 13:36:53;;;;;;;1.13;1.02;;;;;;;-146.30;100.00;58188.94;10419636;28;20493;-81
2023/01/23 13:42:27;;;;;;;0.32;0.32;;;;;;;-146.30;100.00;58188.94;10407017;28;20042;-82
2023/01/23 13:58:57;;;;;;;1.23;0.77;;;;;;;-146.30;100.00;58188.94;10252037;29;20060;-82
2023/01/23 14:09:54;;;;;;;;;;;;;;;-146.30;100.00;58188.94;9942865;29;20421;-82
2023/01/23 14:21:45;;;;;;;1.33;1.23;;;;;;;-146.30;100.00;58188.94;9938214;29;20050;-85
2023/01/23 14:26:52;;;;;;;0.40;0.40;;;;;;;-146.30;100.00;58188.94;10009587;29;20050;-84
2023/01/23 14:31:56;;;;;;;0.55;0.55;;;;;;;-146.30;100.00;58188.94;10057049;29;20049;-84
2023/01/23 14:37:09;;;;;;;1.65;1.55;;;;;;;-146.30;100.00;58188.94;10237911;29;20051;-84
2023/01/23 14:42:29;;;;;;;0.70;0.70;;;;;;;-146.30;100.00;58188.94;10239557;28;21520;-84
2023/01/23 14:47:32;;;;;;;0.63;0.60;;;;;;;-146.30;100.00;58188.94;10401832;28;20481;-83
2023/01/23 14:52:36;;;;;;;0.60;0.60;;;;;;;-146.30;100.00;58188.94;10402659;28;20042;-84
2023/01/23 14:57:38;;;;;;;8.93;1.58;;;;;;;-146.30;100.00;58188.94;10407581;28;20041;-83
2023/01/23 15:02:40;;;;;;;0.68;0.57;;;;;;;-146.30;100.00;58188.94;10413042;28;20038;-84
2023/01/23 15:07:47;;;;;;;2.70;1.50;;;;;;;-146.30;100.00;58188.94;10393409;28;20203;-84
2023/01/23 15:13:02;;;;;;;22.98;1.20;;;;;;;-146.30;100.00;58188.94;10408545;28;20041;-83
2023/01/23 15:18:20;;;;;;;0.50;0.50;;;;;;;-146.30;100.00;58188.94;10409467;28;20464;-84
2023/01/23 15:23:29;;;;;;;1.25;1.13;;;;;;;-146.30;100.00;58188.94;10417426;28;20443;-85
2023/01/23 15:28:47;;;;;;;0.65;0.52;;;;;;;-146.30;100.00;58188.94;10437214;28;20553;-85
2023/01/23 15:33:49;;;;;;;0.88;0.55;;;;;;;-146.30;100.00;58188.94;10437748;28;20037;-85
2023/01/23 15:38:55;;;;;;;0.38;0.20;;;;;;;-146.30;100.00;58188.94;10443373;28;20408;-84
2023/01/23 15:43:57;;;;;;;1.13;0.82;;;;;;;-146.30;100.00;58188.94;10418418;28;20042;-85
2023/01/23 15:48:59;;;;;;;0.85;0.75;;;;;;;-146.30;100.00;58188.94;10422033;28;20029;-84
2023/01/23 15:54:01;;;;;;;0.55;0.50;;;;;;;-146.30;100.00;58188.94;10393630;28;20072;-84
2023/01/23 15:59:12;;;;;;;1.33;1.23;;;;;;;-146.30;100.00;58188.94;10401198;28;20085;-85
2023/01/23 16:04:13;;;;;;;;;;;;;;;-146.30;100.00;58188.94;10413975;28;20477;-86
2023/01/23 16:09:27;;;;;;;0.38;0.17;;;;;;;-146.30;100.00;58188.94;10412479;28;20019;-85
2023/01/23 16:14:28;;;;;;;1.17;0.77;;;;;;;-146.30;100.00;58188.94;10406302;28;20481;-85
2023/01/23 16:19:30;;;;;;;1.20;0.88;;;;;;;-146.30;100.00;58188.94;10417196;28;20131;-86
2023/01/23 16:24:38;;;;;;;1.70;1.58;;;;;;;-146.30;100.00;58188.94;10393825;28;20048;-86
2023/01/23 16:29:42;;;;;;;2.90;1.23;;;;;;;-146.30;100.00;58188.94;10399544;28;20082;-85
2023/01/23 16:34:44;;;;;;;1.17;1.08;;;;;;;-146.30;100.00;58188.94;10402743;28;20044;-85
2023/01/23 16:39:46;;;;;;;1.55;1.20;;;;;;;-146.30;100.00;58188.94;10424165;28;20050;-84
2023/01/23 16:44:49;;;;;;;0.30;0.30;;;;;;;-146.30;100.00;58188.94;10423641;28;20045;-85
2023/01/23 16:49:50;;;;;;;1.75;0.30;;;;;;;-146.30;100.00;58188.94;10417563;28;20493;-84
2023/01/23 16:54:54;;;;;;;0.30;0.30;;;;;;;-146.30;100.00;58188.94;10416131;28;20112;-85
2023/01/23 16:59:57;;;;;;;1.30;1.00;;;;;;;-146.30;100.00;58188.94;10416366;28;20408;-85
2023/01/23 17:04:58;;;;;;;1.35;1.25;;;;;;;-146.30;100.00;58188.94;10402103;28;20066;-84
2023/01/23 17:10:00;;;;;;;0.95;0.60;;;;;;;-146.30;100.00;58188.94;10418714;28;20561;-85
2023/01/23 17:15:02;;;;;;;2.38;0.90;;;;;;;-146.30;100.00;58188.94;10417641;28;20073;-85
2023/01/23 17:20:05;;;;;;;0.22;0.22;;;;;;;-146.30;100.00;58188.94;10416580;28;20046;-84
2023/01/23 17:25:21;;;;;;;0.68;0.40;;;;;;;-146.30;100.00;58188.94;10428302;28;20033;-85
2023/01/23 17:30:24;;;;;;;0.20;0.20;;;;;;;-146.30;100.00;58188.94;10424095;28;20094;-85
2023/01/23 17:35:35;;;;;;;1.40;0.80;;;;;;;-146.30;100.00;58188.94;10427901;28;20484;-85
2023/01/23 17:40:38;;;;;;;0.93;0.57;;;;;;;-146.30;100.00;58188.94;10432934;28;20088;-84
2023/01/23 17:45:41;;;;;;;1.67;0.80;;;;;;;-146.30;100.00;58188.94;10451174;28;20044;-84
2023/01/23 17:50:45;;;;;;;1.05;0.98;;;;;;;-146.30;100.00;58188.94;10424413;28;20053;-85
2023/01/23 17:55:51;;;;;;;2.53;0.80;;;;;;;-146.30;100.00;58188.94;10397555;28;20069;-84
2023/01/23 18:00:54;;;;;;;2.00;1.20;;;;;;;-146.30;100.00;58188.94;10437053;28;20068;-85
2023/01/23 18:05:56;;;;;;;0.43;0.32;;;;;;;-146.30;100.00;58188.94;10439949;28;20114;-85
2023/01/23 18:10:59;;;;;;;1.75;1.55;;;;;;;-146.30;100.00;58188.94;10410526;28;20053;-85
2023/01/23 18:16:18;;;;;;;0.90;0.82;;;;;;;-146.30;100.00;58188.94;10433634;28;20049;-86
2023/01/23 18:21:20;;;;;;;1.20;0.90;;;;;;;-146.30;100.00;58188.94;10395508;28;20053;-85
2023/01/23 18:26:37;;;;;;;1.15;1.05;;;;;;;-146.30;100.00;58188.94;10420935;28;20099;-86
2023/01/23 18:31:59;;;;;;;0.57;0.55;;;;;;;-146.30;100.00;58188.94;10412193;28;20057;-86
2023/01/23 18:37:21;;;;;;;1.20;1.10;;;;;;;-146.30;100.00;58188.94;10410469;28;20042;-84
2023/01/23 18:42:26;;;;;;;1.27;0.82;;;;;;;-146.30;100.00;58188.94;10409170;28;20050;-85
2023/01/23 18:47:28;;;;;;;0.15;0.15;;;;;;;-146.30;100.00;58188.94;10410677;28;20048;-86
2023/01/23 18:52:58;;;;;;;0.43;0.43;;;;;;;-146.30;100.00;58188.94;10419903;28;20041;-83
2023/01/23 18:58:17;;;;;;;1.00;0.93;;;;;;;-146.30;100.00;58188.94;10418445;28;20555;-83
2023/01/23 19:03:27;;;;;;;1.70;1.08;;;;;;;-146.30;100.00;58188.94;10409840;28;20041;-82
2023/01/23 19:08:31;;;;;;;1.60;0.77;;;;;;;-146.30;100.00;58188.94;10402332;28;20029;-82
2023/01/23 19:13:53;;;;;;;2.05;1.58;;;;;;;-146.30;100.00;58188.94;10404780;28;20479;-83
2023/01/23 19:19:07;;;;;;;0.40;0.40;;;;;;;-146.30;100.00;58188.94;10421627;28;20152;-83
2023/01/23 19:24:18;;;;;;;4.38;1.23;;;;;;;-146.30;100.00;58188.94;10400577;28;20496;-82
2023/01/23 19:29:21;;;;;;;1.25;0.38;;;;;;;-146.30;100.00;58188.94;10406749;28;20513;-82
2023/01/23 19:34:23;;;;;;;0.38;0.38;;;;;;;-146.30;100.00;58188.94;10421952;28;20041;-82
2023/01/23 19:39:25;;;;;;;1.17;1.00;;;;;;;-146.30;100.00;58188.94;10421996;28;20052;-82
2023/01/23 19:44:28;;;;;;;11.88;0.77;;;;;;;-146.30;100.00;58188.94;10444723;28;20500;-82
2023/01/23 19:49:30;;;;;;;1.17;0.50;;;;;;;-146.30;100.00;58188.94;10422685;28;20054;-82
2023/01/23 19:54:32;;;;;;;0.93;0.70;;;;;;;-146.30;100.00;58188.94;10440964;28;20055;-82
2023/01/23 19:59:34;;;;;;;1.15;0.85;;;;;;;-146.30;100.00;58188.94;10431057;28;20049;-82
2023/01/23 20:04:35;;;;;;;1.30;1.13;;;;;;;-146.30;100.00;58188.94;10429984;28;20052;-82
2023/01/23 20:09:37;;;;;;;1.17;0.57;;;;;;;-146.30;100.00;58188.94;10411180;28;20117;-82
2023/01/23 20:14:38;;;;;;;1.15;1.05;;;;;;;-146.30;100.00;58188.94;10401459;28;20049;-82
2023/01/23 20:19:40;;;;;;;0.22;0.22;;;;;;;-146.30;100.00;58188.94;10420464;28;20405;-82
2023/01/23 20:24:41;;;;;;;0.63;0.63;;;;;;;-146.30;100.00;58188.94;10401491;28;20045;-82
2023/01/23 20:29:43;;;;;;;0.20;0.20;;;;;;;-146.30;100.00;58188.94;10372608;28;20103;-82
2023/01/23 20:34:45;;;;;;;0.30;0.30;;;;;;;-146.30;100.00;58188.94;10409373;28;20050;-81
2023/01/23 20:39:46;;;;;;;0.70;0.43;;;;;;;-146.30;100.00;58188.94;10435174;28;20054;-82
2023/01/23 20:44:48;;;;;;;1.00;0.93;;;;;;;-146.30;100.00;58188.94;10414010;28;20060;-82
2023/01/23 20:49:50;;;;;;;0.98;0.80;;;;;;;-146.30;100.00;58188.94;10401804;28;20060;-83
2023/01/23 20:54:51;;;;;;;1.35;1.00;;;;;;;-146.30;100.00;58188.94;10422942;28;20033;-82
2023/01/23 20:59:53;;;;;;;0.15;0.15;;;;;;;-146.30;100.00;58188.94;10411714;28;20053;-82
2023/01/23 21:04:54;;;;;;;2.63;2.15;;;;;;;-146.30;100.00;58188.94;10428566;28;20134;-82
2023/01/23 21:09:56;;;;;;;1.70;1.25;;;;;;;-146.30;100.00;58188.94;10431234;28;20489;-82
2023/01/23 21:14:59;;;;;;;0.73;0.60;;;;;;;-146.30;100.00;58188.94;10442961;28;20083;-82
2023/01/23 21:20:00;;;;;;;1.48;1.10;;;;;;;-146.30;100.00;58188.94;10427075;28;20454;-82
2023/01/23 21:25:02;;;;;;;1.55;0.65;;;;;;;-146.30;100.00;58188.94;10447138;28;20140;-82
2023/01/23 21:30:04;;;;;;;1.05;0.95;;;;;;;-146.30;100.00;58188.94;10442092;28;20089;-82
2023/01/23 21:35:06;;;;;;;0.20;0.20;;;;;;;-146.30;100.00;58188.94;10441556;28;20430;-82
2023/01/23 21:40:08;;;;;;;1.13;0.63;;;;;;;-146.30;100.00;58188.94;10428164;28;20075;-82
2023/01/23 21:45:10;;;;;;;0.25;0.25;;;;;;;-146.30;100.00;58188.94;10406167;28;20389;-83
2023/01/23 21:50:16;;;;;;;0.22;0.22;;;;;;;-146.30;100.00;58188.94;10413763;28;20104;-82
2023/01/23 21:55:17;;;;;;;1.88;1.17;;;;;;;-146.30;100.00;58188.94;10412275;28;20034;-82
2023/01/23 22:05:39;;;;;;;0.15;0.15;;;;;;;-146.30;100.00;58188.94;10415337;28;20041;-83
2023/01/23 22:10:42;;;;;;;0.32;0.32;;;;;;;-146.30;100.00;58188.94;10399907;28;20096;-82
2023/01/23 22:15:46;;;;;;;3.50;2.65;;;;;;;-146.30;100.00;58188.94;10423725;28;20048;-82
2023/01/23 22:21:00;;;;;;;3.65;1.67;;;;;;;-146.30;100.00;58188.94;10413827;28;20045;-83
2023/01/23 22:26:04;;;;;;;0.50;0.50;;;;;;;-146.30;100.00;58188.94;10403977;28;20052;-83
2023/01/23 22:31:14;;;;;;;0.38;0.38;;;;;;;-146.30;100.00;58188.94;10411819;28;20135;-82
2023/01/23 22:36:18;;;;;;;3.55;2.13;;;;;;;-146.30;100.00;58188.94;10411671;28;20052;-82
2023/01/23 22:41:20;;;;;;;0.30;0.30;;;;;;;-146.30;100.00;58188.94;10417757;28;20053;-82
2023/01/23 22:46:22;;;;;;;2.85;1.60;;;;;;;-146.30;100.00;58188.94;10412794;28;20446;-82
2023/01/23 22:51:26;;;;;;;1.15;1.05;;;;;;;-146.30;100.00;58188.94;10407575;28;20504;-82
2023/01/23 22:56:28;;;;;;;0.47;0.47;;;;;;;-146.30;100.00;58188.94;10411879;28;20052;-82
2023/01/23 23:01:30;;;;;;;1.08;0.90;;;;;;;-146.30;100.00;58188.94;10458212;28;20053;-81
2023/01/23 23:06:31;;;;;;;1.10;1.00;;;;;;;-146.30;100.00;58188.94;10393660;28;20515;-81
2023/01/23 23:11:35;;;;;;;0.52;0.52;;;;;;;-146.30;100.00;58188.94;10425332;28;20072;-82
2023/01/23 23:16:37;;;;;;;0.98;0.93;;;;;;;-146.30;100.00;58188.94;10394632;28;20546;-82
2023/01/23 23:21:39;;;;;;;0.00;0.00;;;;;;;-146.30;100.00;58188.94;10402188;28;20140;-82
2023/01/23 23:26:41;;;;;;;0.40;0.38;;;;;;;-146.30;100.00;58188.94;10419401;28;20393;-82
2023/01/23 23:31:42;;;;;;;0.50;0.45;;;;;;;-146.30;100.00;58188.94;10412321;28;20451;-83
2023/01/23 23:36:44;;;;;;;0.35;0.35;;;;;;;-146.30;100.00;58188.94;10412245;28;20041;-82
2023/01/23 23:41:46;;;;;;;0.32;0.32;;;;;;;-146.30;100.00;58188.94;10411227;28;20049;-82